Time;durP1;ratioP1;P1;durP2;ratioP2;P2;SDS_P1;SDS_P2;PMS_P1;PMS_P2;Temp;Humidity;BMP_temperature;BMP_pressure;BME280_temperature;BME280_humidity;BME280_pressure;Samples;Min_cycle;Max_cycle;Signal;HPM_P1;HPM_P2
2023/04/09 00:01:14;;;;;;;37.43;27.97;;;;;;;;;;5053733;28;20182;-67
2023/04/09 00:03:40;;;;;;;37.73;29.33;;;;;;;;;;5035585;28;20202;-67
2023/04/09 00:06:06;;;;;;;35.43;27.33;;;;;;;;;;5053272;28;20618;-67
2023/04/09 00:08:32;;;;;;;36.93;27.93;;;;;;;;;;5053084;28;20532;-67
2023/04/09 00:10:59;;;;;;;38.77;30.67;;;;;;;;;;5053205;28;20178;-65
2023/04/09 00:13:25;;;;;;;37.07;27.63;;;;;;;;;;5035226;28;20202;-67
2023/04/09 00:15:51;;;;;;;40.90;28.67;;;;;;;;;;5053132;28;20205;-67
2023/04/09 00:18:17;;;;;;;39.53;28.40;;;;;;;;;;5053305;28;20249;-68
2023/04/09 00:20:43;;;;;;;33.83;26.87;;;;;;;;;;5053072;28;20175;-67
2023/04/09 00:23:09;;;;;;;41.63;28.83;;;;;;;;;;5035376;28;20202;-66
2023/04/09 00:25:36;;;;;;;35.53;28.63;;;;;;;;;;5053569;28;20174;-67
2023/04/09 00:28:02;;;;;;;38.90;30.63;;;;;;;;;;5035979;28;20270;-67
2023/04/09 00:30:28;;;;;;;37.27;29.00;;;;;;;;;;5035014;28;20209;-67
2023/04/09 00:32:55;;;;;;;37.57;29.87;;;;;;;;;;5053052;28;20701;-67
2023/04/09 00:35:21;;;;;;;43.13;31.63;;;;;;;;;;5052880;28;20220;-67
2023/04/09 00:37:47;;;;;;;42.20;31.07;;;;;;;;;;5034970;28;20232;-67
2023/04/09 00:40:13;;;;;;;40.23;29.90;;;;;;;;;;5035463;28;20183;-68
2023/04/09 00:42:40;;;;;;;39.60;30.57;;;;;;;;;;5053062;28;20177;-67
2023/04/09 00:45:06;;;;;;;39.40;29.07;;;;;;;;;;5034705;28;20309;-66
2023/04/09 00:47:34;;;;;;;36.53;28.47;;;;;;;;;;5052759;28;20240;-67
2023/04/09 00:50:00;;;;;;;40.07;31.07;;;;;;;;;;5036316;28;20189;-66
2023/04/09 00:52:26;;;;;;;43.67;31.90;;;;;;;;;;5055797;28;20531;-68
2023/04/09 00:54:52;;;;;;;40.03;30.20;;;;;;;;;;5038437;28;20206;-67
2023/04/09 00:57:19;;;;;;;40.30;30.70;;;;;;;;;;5038668;28;20182;-68
2023/04/09 00:59:45;;;;;;;42.47;31.40;;;;;;;;;;5056805;28;20546;-67
2023/04/09 01:02:11;;;;;;;40.23;30.30;;;;;;;;;;5056599;28;20253;-66
2023/04/09 01:04:38;;;;;;;42.70;30.83;;;;;;;;;;5039005;28;20209;-66
2023/04/09 01:07:27;;;;;;;40.70;31.53;;;;;;;;;;5056980;28;20175;-66
2023/04/09 01:10:12;;;;;;;42.47;32.57;;;;;;;;;;5038208;28;20179;-67
2023/04/09 01:12:45;;;;;;;45.37;31.67;;;;;;;;;;5056837;28;20174;-67
2023/04/09 01:15:14;;;;;;;40.97;31.10;;;;;;;;;;5056169;28;20190;-67
2023/04/09 01:18:01;;;;;;;43.87;32.23;;;;;;;;;;5056660;28;20166;-66
2023/04/09 01:20:53;;;;;;;44.53;31.93;;;;;;;;;;5017027;28;20217;-67
2023/04/09 01:23:29;;;;;;;43.13;31.13;;;;;;;;;;5026605;28;20214;-66
2023/04/09 01:25:55;;;;;;;42.43;31.17;;;;;;;;;;5038562;28;20178;-66
2023/04/09 01:28:31;;;;;;;41.40;30.00;;;;;;;;;;5056790;28;20620;-66
2023/04/09 01:30:59;;;;;;;44.07;29.77;;;;;;;;;;5057072;28;20261;-66
2023/04/09 01:33:25;;;;;;;43.00;30.93;;;;;;;;;;5057043;28;20577;-65
2023/04/09 01:35:52;;;;;;;44.60;31.80;;;;;;;;;;5057456;28;20205;-66
2023/04/09 01:38:19;;;;;;;44.03;32.53;;;;;;;;;;5057573;28;20179;-64
2023/04/09 01:40:45;;;;;;;41.53;30.47;;;;;;;;;;5057475;28;20235;-65
2023/04/09 01:43:12;;;;;;;46.23;32.50;;;;;;;;;;5058039;28;20637;-64
2023/04/09 01:45:38;;;;;;;46.00;33.10;;;;;;;;;;5058267;28;20636;-64
2023/04/09 01:48:04;;;;;;;44.23;33.83;;;;;;;;;;5057988;28;20190;-65
2023/04/09 01:50:30;;;;;;;46.23;32.80;;;;;;;;;;5057764;28;20189;-64
2023/04/09 01:52:57;;;;;;;46.87;33.63;;;;;;;;;;5058214;28;20180;-65
2023/04/09 01:55:23;;;;;;;46.37;34.07;;;;;;;;;;5057850;28;20244;-64
2023/04/09 01:57:49;;;;;;;45.73;32.93;;;;;;;;;;5057588;28;20179;-65
2023/04/09 02:00:15;;;;;;;47.63;33.70;;;;;;;;;;5058078;28;20180;-65
2023/04/09 02:02:48;;;;;;;46.73;33.50;;;;;;;;;;5057339;28;20205;-64
2023/04/09 02:05:16;;;;;;;46.20;32.97;;;;;;;;;;5039646;28;20186;-64
2023/04/09 02:07:54;;;;;;;45.27;30.63;;;;;;;;;;5057814;28;20660;-65
2023/04/09 02:10:22;;;;;;;48.50;33.90;;;;;;;;;;5040012;28;20178;-64
2023/04/09 02:12:50;;;;;;;47.70;33.80;;;;;;;;;;5057855;28;20559;-65
2023/04/09 02:15:17;;;;;;;47.07;33.77;;;;;;;;;;5057936;28;20221;-65
2023/04/09 02:17:43;;;;;;;48.97;34.87;;;;;;;;;;5039742;28;20178;-65
2023/04/09 02:20:10;;;;;;;50.33;35.37;;;;;;;;;;5057462;28;20181;-65
2023/04/09 02:22:36;;;;;;;46.23;33.60;;;;;;;;;;5057682;28;20167;-65
2023/04/09 02:25:02;;;;;;;46.33;33.37;;;;;;;;;;5056726;28;20198;-65
2023/04/09 02:27:28;;;;;;;50.00;35.47;;;;;;;;;;5056931;28;20186;-65
2023/04/09 02:29:54;;;;;;;49.77;33.07;;;;;;;;;;5057322;28;20182;-64
2023/04/09 02:32:20;;;;;;;47.67;33.20;;;;;;;;;;5057643;28;20206;-66
2023/04/09 02:34:46;;;;;;;51.67;36.83;;;;;;;;;;5057218;28;20661;-65
2023/04/09 02:37:12;;;;;;;48.93;34.47;;;;;;;;;;5056130;28;20228;-64
2023/04/09 02:39:38;;;;;;;51.00;35.00;;;;;;;;;;5038843;28;20183;-64
2023/04/09 02:42:06;;;;;;;51.73;36.40;;;;;;;;;;5055949;28;20267;-64
2023/04/09 02:44:32;;;;;;;52.97;35.73;;;;;;;;;;5056044;28;20241;-64
2023/04/09 02:46:58;;;;;;;57.50;37.53;;;;;;;;;;5056293;28;20183;-65
2023/04/09 02:49:24;;;;;;;49.40;35.40;;;;;;;;;;5056408;28;20179;-62
2023/04/09 02:51:50;;;;;;;52.27;35.70;;;;;;;;;;5056265;28;20186;-63
2023/04/09 02:54:16;;;;;;;54.30;37.63;;;;;;;;;;5056989;28;20198;-63
2023/04/09 02:56:42;;;;;;;54.23;38.40;;;;;;;;;;5056723;28;20190;-64
2023/04/09 02:59:08;;;;;;;55.53;36.87;;;;;;;;;;5057286;28;20185;-65
2023/04/09 03:01:34;;;;;;;52.97;37.83;;;;;;;;;;5056571;28;20262;-64
2023/04/09 03:04:00;;;;;;;56.20;37.43;;;;;;;;;;5056355;28;20198;-63
2023/04/09 03:06:26;;;;;;;57.73;36.67;;;;;;;;;;5039307;28;20178;-64
2023/04/09 03:08:52;;;;;;;55.67;36.30;;;;;;;;;;5056901;28;20690;-64
2023/04/09 03:11:18;;;;;;;57.30;38.63;;;;;;;;;;5038388;28;20174;-64
2023/04/09 03:13:44;;;;;;;56.03;37.60;;;;;;;;;;5056097;28;20203;-63
2023/04/09 03:16:10;;;;;;;54.90;37.83;;;;;;;;;;5056549;28;20255;-64
2023/04/09 03:18:36;;;;;;;57.03;37.50;;;;;;;;;;5056090;28;20217;-64
2023/04/09 03:21:06;;;;;;;56.60;38.20;;;;;;;;;;5056552;28;20698;-63
2023/04/09 03:23:33;;;;;;;56.50;38.93;;;;;;;;;;5056222;28;20194;-63
2023/04/09 03:26:04;;;;;;;55.90;37.27;;;;;;;;;;5056673;28;20175;-64
2023/04/09 03:28:30;;;;;;;59.27;39.83;;;;;;;;;;5056489;28;20178;-64
2023/04/09 03:30:56;;;;;;;59.87;39.57;;;;;;;;;;5056390;28;20198;-63
2023/04/09 03:33:22;;;;;;;58.57;40.07;;;;;;;;;;5038692;28;20668;-64
2023/04/09 03:35:48;;;;;;;65.47;41.40;;;;;;;;;;5056234;28;20252;-66
2023/04/09 03:38:14;;;;;;;57.27;40.83;;;;;;;;;;5056361;28;20179;-64
2023/04/09 03:40:41;;;;;;;61.03;42.37;;;;;;;;;;5038499;28;20185;-63
2023/04/09 03:43:07;;;;;;;59.70;40.07;;;;;;;;;;5037915;28;20210;-64
2023/04/09 03:45:33;;;;;;;60.07;43.27;;;;;;;;;;5056038;28;20198;-63
2023/04/09 03:47:59;;;;;;;64.43;43.60;;;;;;;;;;5038206;28;20331;-64
2023/04/09 03:50:25;;;;;;;62.03;41.97;;;;;;;;;;5056357;28;20535;-64
2023/04/09 03:52:51;;;;;;;67.13;42.53;;;;;;;;;;5056141;28;20193;-63
2023/04/09 03:55:17;;;;;;;65.30;45.13;;;;;;;;;;5055993;28;20198;-64
2023/04/09 03:57:43;;;;;;;67.30;44.57;;;;;;;;;;5056002;28;20266;-63
2023/04/09 04:00:09;;;;;;;65.43;45.37;;;;;;;;;;5055959;28;20177;-64
2023/04/09 04:02:35;;;;;;;68.17;44.83;;;;;;;;;;5056014;28;20209;-64
2023/04/09 04:05:01;;;;;;;66.37;44.33;;;;;;;;;;5037738;28;20589;-64
2023/04/09 04:07:28;;;;;;;70.23;46.73;;;;;;;;;;5056133;28;20254;-64
2023/04/09 04:09:54;;;;;;;74.50;47.73;;;;;;;;;;5055182;28;20198;-64
2023/04/09 04:12:20;;;;;;;69.63;47.53;;;;;;;;;;5055880;28;20186;-64
2023/04/09 04:14:46;;;;;;;72.67;46.90;;;;;;;;;;5055770;28;20203;-64
2023/04/09 04:17:12;;;;;;;74.63;47.67;;;;;;;;;;5037748;28;20189;-63
2023/04/09 04:19:38;;;;;;;70.10;47.97;;;;;;;;;;5055630;28;20193;-63
2023/04/09 04:22:04;;;;;;;67.97;46.00;;;;;;;;;;5055828;28;20174;-64
2023/04/09 04:24:30;;;;;;;73.40;48.00;;;;;;;;;;5055412;28;20683;-64
2023/04/09 04:26:56;;;;;;;72.43;47.63;;;;;;;;;;5057920;28;20178;-64
2023/04/09 04:29:22;;;;;;;70.33;47.07;;;;;;;;;;5059760;28;20207;-64
2023/04/09 04:31:48;;;;;;;67.40;44.77;;;;;;;;;;5059688;28;20211;-64
2023/04/09 04:34:14;;;;;;;68.13;45.80;;;;;;;;;;5059571;28;20202;-63
2023/04/09 04:36:40;;;;;;;69.70;46.43;;;;;;;;;;5041693;28;20178;-64
2023/04/09 04:39:06;;;;;;;70.57;45.50;;;;;;;;;;5066401;22;20321;-70
2023/04/09 04:41:32;;;;;;;70.57;46.80;;;;;;;;;;5019260;28;20213;-71
2023/04/09 04:43:58;;;;;;;71.43;44.03;;;;;;;;;;5037457;28;20629;-70
2023/04/09 04:46:24;;;;;;;70.97;44.50;;;;;;;;;;5036880;28;20206;-70
2023/04/09 04:48:50;;;;;;;69.23;43.87;;;;;;;;;;5037206;28;20199;-70
2023/04/09 04:51:15;;;;;;;66.10;42.60;;;;;;;;;;5019774;28;20570;-70
2023/04/09 04:53:41;;;;;;;67.53;44.57;;;;;;;;;;5019591;28;20364;-71
2023/04/09 04:56:12;;;;;;;65.27;43.83;;;;;;;;;;5037242;28;20661;-71
2023/04/09 04:58:38;;;;;;;67.17;44.30;;;;;;;;;;5037166;28;20672;-71
2023/04/09 05:01:04;;;;;;;65.83;42.63;;;;;;;;;;5019256;28;20182;-71
2023/04/09 05:03:30;;;;;;;66.47;42.20;;;;;;;;;;5018940;28;20179;-71
2023/04/09 05:05:56;;;;;;;67.37;43.30;;;;;;;;;;5036666;28;20529;-72
2023/04/09 05:08:22;;;;;;;70.13;44.60;;;;;;;;;;5018700;28;20301;-70
2023/04/09 05:10:47;;;;;;;65.53;44.40;;;;;;;;;;5018911;28;20182;-70
2023/04/09 05:13:13;;;;;;;68.33;43.57;;;;;;;;;;5036641;28;20180;-71
2023/04/09 05:15:40;;;;;;;68.57;44.23;;;;;;;;;;5019005;28;20203;-70
2023/04/09 05:18:07;;;;;;;65.77;44.10;;;;;;;;;;5036586;28;20176;-71
2023/04/09 05:20:33;;;;;;;65.97;44.50;;;;;;;;;;5036685;28;20175;-70
2023/04/09 05:23:00;;;;;;;69.80;44.40;;;;;;;;;;5018538;28;20278;-71
2023/04/09 05:25:26;;;;;;;64.10;42.60;;;;;;;;;;5036437;28;20175;-71
2023/04/09 05:27:51;;;;;;;66.10;44.67;;;;;;;;;;5018843;28;20191;-70
2023/04/09 05:30:17;;;;;;;63.57;41.03;;;;;;;;;;5036504;28;20206;-71
2023/04/09 05:32:44;;;;;;;65.20;43.23;;;;;;;;;;5036384;28;20175;-73
2023/04/09 05:35:09;;;;;;;62.93;39.53;;;;;;;;;;5036092;28;20231;-71
2023/04/09 05:37:35;;;;;;;65.70;42.40;;;;;;;;;;5035477;28;20168;-71
2023/04/09 05:40:01;;;;;;;66.70;42.83;;;;;;;;;;5035691;28;20229;-70
2023/04/09 05:42:27;;;;;;;65.47;42.63;;;;;;;;;;5018305;28;20230;-69
2023/04/09 05:44:54;;;;;;;63.30;42.67;;;;;;;;;;5018344;28;20183;-69
2023/04/09 05:47:20;;;;;;;59.30;41.73;;;;;;;;;;5036713;28;20543;-69
2023/04/09 05:49:46;;;;;;;59.07;40.50;;;;;;;;;;5018130;28;20213;-69
2023/04/09 05:52:12;;;;;;;61.57;41.57;;;;;;;;;;5035771;28;20265;-69
2023/04/09 05:54:38;;;;;;;54.43;38.90;;;;;;;;;;5017996;28;20207;-69
2023/04/09 05:57:04;;;;;;;58.03;36.43;;;;;;;;;;5035786;28;20171;-69
2023/04/09 05:59:30;;;;;;;54.47;38.33;;;;;;;;;;5035671;28;20191;-69
2023/04/09 06:01:56;;;;;;;51.23;34.97;;;;;;;;;;5018053;28;20176;-69
2023/04/09 06:04:22;;;;;;;48.67;34.67;;;;;;;;;;5035531;28;20186;-68
2023/04/09 06:06:48;;;;;;;47.87;34.90;;;;;;;;;;5017984;28;20175;-69
2023/04/09 06:09:14;;;;;;;46.77;33.50;;;;;;;;;;5035232;28;20202;-69
2023/04/09 06:11:40;;;;;;;41.37;31.87;;;;;;;;;;5017677;28;20218;-69
2023/04/09 06:14:06;;;;;;;46.97;32.90;;;;;;;;;;5017694;28;20189;-69
2023/04/09 06:16:32;;;;;;;43.63;32.17;;;;;;;;;;5035223;28;20245;-70
2023/04/09 06:18:58;;;;;;;40.87;31.53;;;;;;;;;;5017619;28;20286;-69
2023/04/09 06:21:24;;;;;;;43.50;31.63;;;;;;;;;;5035678;28;20225;-69
2023/04/09 06:23:52;;;;;;;37.87;29.87;;;;;;;;;;5036349;28;20171;-69
2023/04/09 06:26:18;;;;;;;39.67;30.07;;;;;;;;;;5018446;28;20274;-69
2023/04/09 06:28:44;;;;;;;43.70;30.77;;;;;;;;;;5018596;28;20695;-69
2023/04/09 06:31:10;;;;;;;40.00;31.63;;;;;;;;;;5036619;28;20171;-69
2023/04/09 06:33:36;;;;;;;40.73;29.63;;;;;;;;;;5035246;28;20171;-69
2023/04/09 06:36:01;;;;;;;39.40;29.23;;;;;;;;;;5017349;28;20203;-69
2023/04/09 06:38:27;;;;;;;36.13;28.57;;;;;;;;;;5017039;28;20199;-69
2023/04/09 06:40:56;;;;;;;36.23;27.77;;;;;;;;;;5017119;28;20183;-69
2023/04/09 06:43:21;;;;;;;36.30;28.17;;;;;;;;;;5017005;28;20178;-69
2023/04/09 06:45:47;;;;;;;36.43;28.23;;;;;;;;;;5035068;28;20179;-69
2023/04/09 06:48:13;;;;;;;41.00;28.73;;;;;;;;;;5016905;28;20219;-69
2023/04/09 06:50:39;;;;;;;36.43;27.07;;;;;;;;;;5034430;28;20217;-69
2023/04/09 06:53:06;;;;;;;34.10;26.60;;;;;;;;;;5035055;28;20187;-69
2023/04/09 06:55:31;;;;;;;36.67;27.30;;;;;;;;;;5016894;28;20567;-69
2023/04/09 06:57:57;;;;;;;36.40;28.20;;;;;;;;;;5035191;28;20171;-69
2023/04/09 07:00:23;;;;;;;35.43;27.43;;;;;;;;;;5016657;28;20641;-69
2023/04/09 07:02:49;;;;;;;35.60;26.40;;;;;;;;;;5034445;28;20193;-69
2023/04/09 07:05:16;;;;;;;34.23;27.43;;;;;;;;;;5016766;28;20179;-69
2023/04/09 07:07:42;;;;;;;35.00;26.47;;;;;;;;;;5034958;28;20207;-69
2023/04/09 07:10:08;;;;;;;36.00;27.00;;;;;;;;;;5016523;28;20659;-69
2023/04/09 07:12:34;;;;;;;30.27;24.97;;;;;;;;;;5016478;28;20274;-69
2023/04/09 07:15:01;;;;;;;33.13;24.33;;;;;;;;;;5034211;28;20213;-69
2023/04/09 07:17:27;;;;;;;32.37;25.03;;;;;;;;;;5034135;28;20219;-69
2023/04/09 07:19:53;;;;;;;35.30;25.50;;;;;;;;;;5016563;28;20595;-69
2023/04/09 07:22:23;;;;;;;30.47;24.43;;;;;;;;;;5016306;28;20182;-69
2023/04/09 07:24:52;;;;;;;33.43;24.37;;;;;;;;;;5034044;28;20179;-69
2023/04/09 07:27:22;;;;;;;30.70;23.93;;;;;;;;;;5016185;28;20190;-69
2023/04/09 07:29:48;;;;;;;33.80;25.67;;;;;;;;;;5016273;28;20253;-69
2023/04/09 07:32:15;;;;;;;31.27;25.53;;;;;;;;;;5016271;28;20237;-71
2023/04/09 07:34:41;;;;;;;32.57;25.83;;;;;;;;;;5033655;28;20669;-69
2023/04/09 07:37:08;;;;;;;34.20;26.83;;;;;;;;;;5034039;28;20642;-69
2023/04/09 07:39:34;;;;;;;33.40;26.23;;;;;;;;;;5015824;28;20574;-69
2023/04/09 07:42:04;;;;;;;31.17;24.97;;;;;;;;;;5015972;28;20253;-69
2023/04/09 07:44:33;;;;;;;33.60;25.93;;;;;;;;;;5016048;28;20258;-69
2023/04/09 07:46:59;;;;;;;30.83;22.70;;;;;;;;;;5015857;28;20179;-69
2023/04/09 07:49:25;;;;;;;33.50;23.30;;;;;;;;;;5033725;28;20633;-69
2023/04/09 07:51:51;;;;;;;29.27;23.53;;;;;;;;;;5033968;28;20262;-69
2023/04/09 07:54:18;;;;;;;31.67;22.77;;;;;;;;;;5033541;28;20179;-69
2023/04/09 07:56:44;;;;;;;29.87;23.17;;;;;;;;;;5033735;28;20178;-69
2023/04/09 07:59:10;;;;;;;26.10;22.23;;;;;;;;;;5017796;28;20190;-69
2023/04/09 08:01:36;;;;;;;27.23;21.67;;;;;;;;;;5035679;28;20179;-68
2023/04/09 08:04:02;;;;;;;34.60;28.33;;;;;;;;;;5033491;28;20649;-70
2023/04/09 08:06:28;;;;;;;32.37;26.50;;;;;;;;;;5033742;28;20658;-69
2023/04/09 08:08:54;;;;;;;38.40;30.07;;;;;;;;;;5015919;28;20289;-69
2023/04/09 08:11:24;;;;;;;49.87;39.90;;;;;;;;;;5015692;28;20179;-69
2023/04/09 08:13:50;;;;;;;48.37;40.67;;;;;;;;;;5033285;28;20233;-71
2023/04/09 08:16:16;;;;;;;51.33;44.30;;;;;;;;;;5015333;28;20234;-69
2023/04/09 08:18:42;;;;;;;38.13;30.10;;;;;;;;;;5032988;28;20594;-69
2023/04/09 08:21:08;;;;;;;36.67;29.60;;;;;;;;;;5015472;28;20175;-69
2023/04/09 08:23:34;;;;;;;30.77;26.97;;;;;;;;;;5015424;28;20547;-70
2023/04/09 08:26:00;;;;;;;40.07;31.30;;;;;;;;;;5015344;28;20179;-69
2023/04/09 08:28:27;;;;;;;25.00;20.90;;;;;;;;;;5033029;28;20278;-70
2023/04/09 08:30:53;;;;;;;26.70;23.10;;;;;;;;;;5033358;28;20187;-70
2023/04/09 08:33:18;;;;;;;25.97;21.53;;;;;;;;;;5032990;28;20193;-69
2023/04/09 08:35:44;;;;;;;21.33;18.83;;;;;;;;;;5015223;28;20210;-69
2023/04/09 08:38:10;;;;;;;20.80;18.00;;;;;;;;;;5032938;28;20171;-70
2023/04/09 08:40:37;;;;;;;21.67;19.37;;;;;;;;;;5032961;28;20198;-69
2023/04/09 08:43:06;;;;;;;16.33;13.43;;;;;;;;;;5032926;28;20568;-70
2023/04/09 08:45:32;;;;;;;15.33;12.43;;;;;;;;;;5032931;28;20265;-69
2023/04/09 08:47:59;;;;;;;60.77;35.97;;;;;;;;;;5015256;28;20187;-69
2023/04/09 08:50:26;;;;;;;35.83;27.77;;;;;;;;;;5015100;28;20203;-70
2023/04/09 08:52:52;;;;;;;13.47;10.67;;;;;;;;;;5015101;28;20271;-69
2023/04/09 08:55:18;;;;;;;16.97;14.43;;;;;;;;;;5015785;28;20219;-69
2023/04/09 08:57:44;;;;;;;15.27;12.47;;;;;;;;;;5033007;28;20175;-69
2023/04/09 09:00:11;;;;;;;12.90;10.70;;;;;;;;;;5015054;28;20696;-69
2023/04/09 09:02:38;;;;;;;10.27;8.70;;;;;;;;;;5032835;28;20175;-69
2023/04/09 09:05:04;;;;;;;9.83;7.90;;;;;;;;;;5033266;28;20179;-69
2023/04/09 09:07:30;;;;;;;9.07;8.07;;;;;;;;;;5015165;28;20190;-69
2023/04/09 09:10:03;;;;;;;10.50;9.23;;;;;;;;;;5032702;28;20195;-69
2023/04/09 09:12:38;;;;;;;10.57;9.47;;;;;;;;;;5034416;28;20174;-70
2023/04/09 09:15:23;;;;;;;9.43;8.17;;;;;;;;;;5036830;28;20210;-69
2023/04/09 09:17:55;;;;;;;9.33;8.43;;;;;;;;;;5036568;28;20171;-69
2023/04/09 09:20:22;;;;;;;9.30;8.20;;;;;;;;;;5019272;28;20221;-69
2023/04/09 09:22:52;;;;;;;8.70;7.37;;;;;;;;;;5019811;28;20179;-70
2023/04/09 09:25:22;;;;;;;9.50;7.07;;;;;;;;;;5036701;28;20175;-69
2023/04/09 09:27:47;;;;;;;7.23;6.40;;;;;;;;;;5019070;28;20226;-69
2023/04/09 09:30:23;;;;;;;9.03;7.53;;;;;;;;;;5018801;28;20207;-69
2023/04/09 09:32:53;;;;;;;11.07;7.07;;;;;;;;;;5036428;28;20175;-69
2023/04/09 09:35:19;;;;;;;8.67;6.60;;;;;;;;;;5018664;28;20248;-70
2023/04/09 09:37:45;;;;;;;7.40;6.60;;;;;;;;;;5036449;28;20178;-69
2023/04/09 09:40:25;;;;;;;7.33;6.50;;;;;;;;;;5018294;28;20214;-69
2023/04/09 09:42:55;;;;;;;6.67;5.80;;;;;;;;;;5036233;28;20164;-69
2023/04/09 09:45:21;;;;;;;8.00;6.87;;;;;;;;;;5035942;28;20175;-69
2023/04/09 09:47:48;;;;;;;10.03;6.47;;;;;;;;;;5035945;28;20183;-69
2023/04/09 09:50:14;;;;;;;8.50;7.30;;;;;;;;;;5035707;28;20263;-69
2023/04/09 09:52:42;;;;;;;9.43;8.23;;;;;;;;;;5035962;28;20187;-70
2023/04/09 09:55:09;;;;;;;9.97;7.60;;;;;;;;;;5035622;28;20238;-69
2023/04/09 09:57:38;;;;;;;7.77;6.97;;;;;;;;;;5017935;28;20241;-69
2023/04/09 10:00:05;;;;;;;8.80;7.33;;;;;;;;;;5017805;28;20281;-70
2023/04/09 10:02:36;;;;;;;8.77;7.37;;;;;;;;;;5017848;28;20598;-69
2023/04/09 10:05:05;;;;;;;7.97;7.17;;;;;;;;;;5017943;28;20182;-69
2023/04/09 10:07:32;;;;;;;8.03;7.10;;;;;;;;;;5035824;28;20183;-70
2023/04/09 10:09:59;;;;;;;9.03;7.77;;;;;;;;;;5035275;28;20199;-69
2023/04/09 10:12:26;;;;;;;8.23;6.67;;;;;;;;;;5017989;28;20671;-69
2023/04/09 10:14:52;;;;;;;9.23;6.90;;;;;;;;;;5017536;28;20265;-69
2023/04/09 10:17:18;;;;;;;8.57;7.47;;;;;;;;;;5035287;28;20175;-69
2023/04/09 10:19:49;;;;;;;8.07;7.13;;;;;;;;;;5017622;28;20202;-69
2023/04/09 10:22:17;;;;;;;9.53;7.47;;;;;;;;;;5017422;28;20258;-69
2023/04/09 10:24:44;;;;;;;7.40;6.60;;;;;;;;;;5033647;28;20266;-69
2023/04/09 10:27:11;;;;;;;7.77;7.07;;;;;;;;;;5035251;28;20183;-69
2023/04/09 10:29:44;;;;;;;7.70;6.90;;;;;;;;;;5035219;28;20206;-69
2023/04/09 10:32:10;;;;;;;7.67;6.87;;;;;;;;;;5035031;28;20186;-69
2023/04/09 10:34:40;;;;;;;7.97;7.10;;;;;;;;;;5034668;28;20183;-69
2023/04/09 10:37:08;;;;;;;8.47;6.77;;;;;;;;;;5016987;28;20207;-69
2023/04/09 10:39:38;;;;;;;9.50;7.70;;;;;;;;;;5017265;28;20580;-69
2023/04/09 10:42:07;;;;;;;8.67;7.53;;;;;;;;;;5035113;28;20210;-69
2023/04/09 10:44:36;;;;;;;10.73;7.10;;;;;;;;;;5017093;28;20271;-69
2023/04/09 10:47:04;;;;;;;8.37;7.40;;;;;;;;;;5016931;28;20241;-69
2023/04/09 10:49:35;;;;;;;7.83;6.70;;;;;;;;;;5017555;28;20203;-69
2023/04/09 10:52:02;;;;;;;11.70;6.37;;;;;;;;;;5035388;28;20167;-69
2023/04/09 10:54:37;;;;;;;7.70;6.90;;;;;;;;;;5016926;28;20183;-69
2023/04/09 10:57:06;;;;;;;7.00;6.30;;;;;;;;;;5034535;28;20175;-70
2023/04/09 10:59:32;;;;;;;6.80;6.17;;;;;;;;;;5034549;28;20195;-69
2023/04/09 11:01:58;;;;;;;9.97;7.50;;;;;;;;;;5034886;28;20182;-69
2023/04/09 11:04:29;;;;;;;7.20;6.23;;;;;;;;;;5034562;28;20175;-69
2023/04/09 11:06:56;;;;;;;6.53;5.93;;;;;;;;;;5034749;28;20164;-70
2023/04/09 11:09:22;;;;;;;7.23;6.13;;;;;;;;;;5034251;28;20333;-69
2023/04/09 11:11:56;;;;;;;7.10;6.20;;;;;;;;;;5016608;28;20252;-70
2023/04/09 11:14:22;;;;;;;7.27;6.47;;;;;;;;;;5016553;28;20179;-69
2023/04/09 11:16:48;;;;;;;6.93;6.23;;;;;;;;;;5016693;28;20175;-69
2023/04/09 11:19:14;;;;;;;6.90;6.20;;;;;;;;;;5034041;28;20199;-71
2023/04/09 11:21:45;;;;;;;7.23;6.00;;;;;;;;;;5016483;28;20634;-69
2023/04/09 11:26:48;;;;;;;6.77;5.77;;;;;;;;;;5032717;28;20579;-63
2023/04/09 11:29:14;;;;;;;5.70;5.07;;;;;;;;;;5034021;28;20171;-63
2023/04/09 11:31:42;;;;;;;7.00;6.13;;;;;;;;;;5033721;28;20243;-64
2023/04/09 11:34:13;;;;;;;6.93;6.00;;;;;;;;;;5033597;28;20178;-63
2023/04/09 11:36:39;;;;;;;8.60;6.67;;;;;;;;;;4996683;28;20207;-64
2023/04/09 11:39:05;;;;;;;6.60;5.97;;;;;;;;;;5013806;28;20168;-64
2023/04/09 11:41:37;;;;;;;7.00;6.20;;;;;;;;;;5013833;28;20179;-63
2023/04/09 11:44:09;;;;;;;7.80;6.93;;;;;;;;;;5013819;28;20207;-64
2023/04/09 11:46:36;;;;;;;8.27;6.87;;;;;;;;;;4995924;28;20200;-64
2023/04/09 11:49:02;;;;;;;7.10;6.23;;;;;;;;;;5013756;28;20187;-63
2023/04/09 11:51:30;;;;;;;6.87;6.17;;;;;;;;;;5013870;28;20184;-63
2023/04/09 11:54:00;;;;;;;7.30;6.60;;;;;;;;;;4996177;28;20262;-63
2023/04/09 11:56:28;;;;;;;7.17;6.47;;;;;;;;;;5013868;28;20203;-63
2023/04/09 11:58:54;;;;;;;7.53;6.80;;;;;;;;;;5013819;28;20207;-65
2023/04/09 12:01:21;;;;;;;7.90;6.50;;;;;;;;;;5013871;28;20233;-62
2023/04/09 12:03:54;;;;;;;8.20;7.23;;;;;;;;;;4996085;28;20183;-64
2023/04/09 12:06:24;;;;;;;7.43;6.73;;;;;;;;;;5013394;28;20700;-64
2023/04/09 12:08:53;;;;;;;7.90;7.10;;;;;;;;;;5013642;28;20184;-64
2023/04/09 12:11:19;;;;;;;7.20;6.53;;;;;;;;;;5013886;28;20599;-64
2023/04/09 12:13:45;;;;;;;6.87;6.17;;;;;;;;;;5013464;28;20207;-64
2023/04/09 12:16:11;;;;;;;8.13;6.90;;;;;;;;;;5013349;28;20211;-64
2023/04/09 12:18:38;;;;;;;6.30;5.57;;;;;;;;;;5013555;28;20186;-64
2023/04/09 12:21:04;;;;;;;7.50;6.07;;;;;;;;;;4995916;28;20175;-64
2023/04/09 12:23:30;;;;;;;6.90;6.20;;;;;;;;;;5013603;28;20185;-64
2023/04/09 12:26:00;;;;;;;7.63;6.83;;;;;;;;;;4995491;28;20241;-64
2023/04/09 12:28:27;;;;;;;7.60;6.73;;;;;;;;;;5013451;28;20184;-64
2023/04/09 12:30:53;;;;;;;10.13;7.43;;;;;;;;;;4995514;28;20658;-64
2023/04/09 12:33:20;;;;;;;7.70;7.00;;;;;;;;;;5013179;28;20646;-63
2023/04/09 12:35:46;;;;;;;9.97;7.10;;;;;;;;;;4995428;28;20208;-64
2023/04/09 12:38:12;;;;;;;8.10;7.30;;;;;;;;;;5013427;28;20311;-61
2023/04/09 12:40:39;;;;;;;7.77;6.97;;;;;;;;;;5013024;28;20255;-60
2023/04/09 12:43:05;;;;;;;10.03;7.70;;;;;;;;;;4995621;28;20184;-62
2023/04/09 12:45:31;;;;;;;8.20;7.40;;;;;;;;;;5013390;28;20196;-62
2023/04/09 12:47:57;;;;;;;7.53;6.70;;;;;;;;;;4997835;28;20254;-62
2023/04/09 12:50:23;;;;;;;8.37;7.03;;;;;;;;;;5016896;28;20184;-62
2023/04/09 12:52:49;;;;;;;10.97;7.70;;;;;;;;;;5016776;28;20268;-62
2023/04/09 12:55:15;;;;;;;8.63;7.60;;;;;;;;;;5016952;28;20282;-63
2023/04/09 12:57:48;;;;;;;7.97;6.60;;;;;;;;;;5017412;28;20549;-63
2023/04/09 13:00:14;;;;;;;7.63;6.80;;;;;;;;;;5016923;28;20176;-62
2023/04/09 13:02:40;;;;;;;9.23;7.40;;;;;;;;;;5016785;28;20259;-63
2023/04/09 13:05:07;;;;;;;7.23;6.53;;;;;;;;;;5017360;28;20206;-62
2023/04/09 13:07:33;;;;;;;7.67;6.73;;;;;;;;;;4999200;28;20195;-61
2023/04/09 13:09:59;;;;;;;7.40;6.63;;;;;;;;;;4999447;28;20242;-63
2023/04/09 13:12:25;;;;;;;9.13;6.57;;;;;;;;;;5016832;28;20176;-61
2023/04/09 13:14:52;;;;;;;8.10;6.97;;;;;;;;;;5016797;28;20200;-63
2023/04/09 13:17:18;;;;;;;9.83;7.60;;;;;;;;;;5016606;28;20229;-63
2023/04/09 13:19:44;;;;;;;8.03;7.23;;;;;;;;;;4999179;28;20275;-63
2023/04/09 13:22:10;;;;;;;7.57;6.60;;;;;;;;;;5016433;28;20172;-63
2023/04/09 13:24:37;;;;;;;8.10;7.27;;;;;;;;;;5016222;28;20196;-61
2023/04/09 13:27:04;;;;;;;8.03;6.57;;;;;;;;;;5016768;28;20179;-63
2023/04/09 13:29:30;;;;;;;9.50;7.03;;;;;;;;;;4998479;28;20184;-62
2023/04/09 13:31:56;;;;;;;7.40;6.70;;;;;;;;;;5016234;28;20222;-62
2023/04/09 13:34:23;;;;;;;7.33;6.63;;;;;;;;;;5016251;28;20184;-63
2023/04/09 13:36:49;;;;;;;8.67;7.77;;;;;;;;;;5015989;28;20302;-61
2023/04/09 13:39:15;;;;;;;9.30;8.10;;;;;;;;;;5016053;28;20716;-63
2023/04/09 13:41:41;;;;;;;8.73;7.40;;;;;;;;;;4998341;28;20176;-63
2023/04/09 13:44:07;;;;;;;9.57;7.37;;;;;;;;;;5015936;28;20654;-62
2023/04/09 13:46:33;;;;;;;8.23;7.37;;;;;;;;;;5015822;28;20210;-63
2023/04/09 13:48:59;;;;;;;8.50;6.90;;;;;;;;;;5016057;28;20250;-62
2023/04/09 13:51:28;;;;;;;10.83;7.13;;;;;;;;;;5015843;28;20176;-63
2023/04/09 13:53:54;;;;;;;10.40;7.30;;;;;;;;;;5015974;28;20187;-64
2023/04/09 13:56:20;;;;;;;6.43;5.77;;;;;;;;;;5015608;28;20737;-62
2023/04/09 13:58:46;;;;;;;13.03;7.47;;;;;;;;;;5015598;28;20210;-62
2023/04/09 14:01:13;;;;;;;10.60;8.07;;;;;;;;;;5015638;28;20204;-62
2023/04/09 14:03:39;;;;;;;7.67;6.87;;;;;;;;;;4998013;28;20212;-62
2023/04/09 14:06:08;;;;;;;10.47;7.83;;;;;;;;;;5015764;28;20206;-63
2023/04/09 14:08:35;;;;;;;8.50;6.83;;;;;;;;;;4998486;28;20187;-62
2023/04/09 14:11:01;;;;;;;9.93;8.17;;;;;;;;;;5015904;28;20552;-62
2023/04/09 14:13:27;;;;;;;8.27;7.10;;;;;;;;;;5015864;28;20186;-63
2023/04/09 14:15:53;;;;;;;7.27;6.57;;;;;;;;;;5015486;28;20258;-63
2023/04/09 14:18:19;;;;;;;;;;;;;;;;;;5016206;28;20054;-64
2023/04/09 14:20:45;;;;;;;7.45;6.75;;;;;;;;;;5014250;28;20487;-64
2023/04/09 14:23:11;;;;;;;10.30;8.07;;;;;;;;;;4998067;28;20247;-64
2023/04/09 14:25:37;;;;;;;7.10;6.40;;;;;;;;;;5015326;28;20228;-63
2023/04/09 14:28:03;;;;;;;6.73;6.03;;;;;;;;;;4997831;28;20188;-63